createdAt,value
2022-12-08T00:01:23.072Z,99976.53
2022-12-08T00:03:50.657Z,99978.28
2022-12-08T00:06:45.691Z,99971.31
2022-12-08T00:09:24.911Z,99965.28
2022-12-08T00:11:54.091Z,99959.41
2022-12-08T00:14:24.002Z,99966.31
2022-12-08T00:16:50.645Z,99930.94
2022-12-08T00:19:17.277Z,99966.84
2022-12-08T00:21:43.840Z,99965.91
2022-12-08T00:24:10.403Z,99963.16
2022-12-08T00:26:37.099Z,99962.97
2022-12-08T00:29:06.129Z,99957.72
2022-12-08T00:31:32.805Z,99946.31
2022-12-08T00:33:59.764Z,99958.31
2022-12-08T00:36:26.827Z,99947.13
2022-12-08T00:38:53.367Z,99952.97
2022-12-08T00:41:40.931Z,99934.03
2022-12-08T00:44:08.430Z,99945.34
2022-12-08T00:46:35.332Z,99948.56
2022-12-08T00:49:02.724Z,99943.44
2022-12-08T00:51:29.561Z,99954.00
2022-12-08T00:53:56.229Z,99946.22
2022-12-08T00:56:23.266Z,99947.06
2022-12-08T00:58:49.852Z,99940.44
2022-12-08T01:01:16.617Z,99913.00
2022-12-08T01:03:43.394Z,99943.97
2022-12-08T01:06:10.845Z,99916.34
2022-12-08T01:08:38.240Z,99949.06
2022-12-08T01:11:10.841Z,99932.44
2022-12-08T01:13:37.703Z,99947.94
2022-12-08T01:16:04.392Z,99930.56
2022-12-08T01:18:31.085Z,99931.41
2022-12-08T01:21:05.602Z,99924.38
2022-12-08T01:23:32.546Z,99935.59
2022-12-08T01:26:03.467Z,99933.88
2022-12-08T01:28:31.240Z,99924.53
2022-12-08T01:30:59.221Z,99922.06
2022-12-08T01:33:26.623Z,99927.88
2022-12-08T01:35:53.712Z,99916.56
2022-12-08T01:38:20.299Z,99927.81
2022-12-08T01:40:49.137Z,99907.94
2022-12-08T01:43:20.569Z,99921.53
2022-12-08T01:45:47.883Z,99915.38
2022-12-08T01:48:27.186Z,99887.88
2022-12-08T01:50:55.633Z,99900.84
2022-12-08T01:53:27.623Z,99918.09
2022-12-08T01:55:59.382Z,99912.13
2022-12-08T01:58:45.122Z,99906.97
2022-12-08T02:01:12.473Z,99915.72
2022-12-08T02:03:58.960Z,99910.47
2022-12-08T02:06:28.668Z,99907.00
2022-12-08T02:08:56.483Z,99901.78
2022-12-08T02:11:23.042Z,99894.84
2022-12-08T02:13:52.153Z,99875.78
2022-12-08T02:16:27.877Z,99872.09
2022-12-08T02:19:31.795Z,99894.41
2022-12-08T02:22:07.459Z,99890.03
2022-12-08T02:24:46.044Z,99877.81
2022-12-08T02:27:18.409Z,99862.28
2022-12-08T02:30:21.123Z,99867.53
2022-12-08T02:33:21.878Z,99889.09
2022-12-08T02:36:16.011Z,99861.53
2022-12-08T02:38:56.257Z,99884.66
2022-12-08T02:41:46.984Z,99854.44
2022-12-08T02:44:30.223Z,99876.81
2022-12-08T02:47:06.295Z,99875.97
2022-12-08T02:49:34.612Z,99873.44
2022-12-08T02:52:14.181Z,99872.75
2022-12-08T02:54:46.575Z,99873.06
2022-12-08T02:57:26.084Z,99875.09
2022-12-08T02:59:52.648Z,99867.94
2022-12-08T03:02:42.115Z,99869.50
2022-12-08T03:05:30.925Z,99863.75
2022-12-08T03:08:05.094Z,99857.13
2022-12-08T03:10:40.575Z,99861.91
2022-12-08T03:13:16.197Z,99850.69
2022-12-08T03:15:46.751Z,99845.44
2022-12-08T03:18:16.020Z,99864.31
2022-12-08T03:20:45.289Z,99854.53
2022-12-08T03:23:14.535Z,99845.84
2022-12-08T03:25:50.596Z,99842.19
2022-12-08T03:28:17.247Z,99824.34
2022-12-08T03:30:48.096Z,99838.09
2022-12-08T03:33:22.347Z,99833.59
2022-12-08T03:35:49.724Z,99836.13
2022-12-08T03:38:17.183Z,99830.13
2022-12-08T03:41:05.109Z,99838.09
2022-12-08T03:43:31.685Z,99807.88
2022-12-08T03:45:58.252Z,99801.03
2022-12-08T03:48:24.764Z,99812.59
2022-12-08T03:50:51.315Z,99797.59
2022-12-08T03:53:17.833Z,99825.66
2022-12-08T03:55:44.364Z,99823.75
2022-12-08T03:58:10.850Z,99822.03
2022-12-08T04:00:37.404Z,99810.78
2022-12-08T04:03:04.646Z,99807.53
2022-12-08T04:05:31.257Z,99810.97
2022-12-08T04:07:58.217Z,99804.00
2022-12-08T04:10:24.842Z,99816.91
2022-12-08T04:12:51.514Z,99810.72
2022-12-08T04:15:18.067Z,99801.94
2022-12-08T04:17:44.583Z,99813.22
2022-12-08T04:20:11.618Z,99810.44
2022-12-08T04:22:38.191Z,99805.16
2022-12-08T04:25:05.276Z,99806.13
2022-12-08T04:27:31.789Z,99797.44
2022-12-08T04:29:58.290Z,99805.22
2022-12-08T04:32:24.840Z,99797.34
2022-12-08T04:34:51.392Z,99782.81
2022-12-08T04:37:17.937Z,99788.13
2022-12-08T04:39:44.439Z,99787.44
2022-12-08T04:42:11.004Z,99792.06
2022-12-08T04:44:37.594Z,99760.53
2022-12-08T04:47:04.305Z,99790.63
2022-12-08T04:49:31.018Z,99793.94
2022-12-08T04:51:57.584Z,99783.44
2022-12-08T04:54:24.251Z,99794.41
2022-12-08T04:56:50.956Z,99782.22
2022-12-08T04:59:17.459Z,99784.66
2022-12-08T05:01:44.117Z,99781.16
2022-12-08T05:04:10.742Z,99775.75
2022-12-08T05:06:37.262Z,99769.53
2022-12-08T05:09:03.833Z,99758.34
2022-12-08T05:11:30.463Z,99772.38
2022-12-08T05:13:56.995Z,99776.00
2022-12-08T05:16:23.607Z,99776.81
2022-12-08T05:18:50.218Z,99743.34
2022-12-08T05:21:16.752Z,99769.06
2022-12-08T05:23:43.587Z,99775.94
2022-12-08T05:26:10.094Z,99767.13
2022-12-08T05:28:41.881Z,99764.25
2022-12-08T05:31:09.301Z,99763.31
2022-12-08T05:33:35.907Z,99761.50
2022-12-08T05:36:02.470Z,99757.16
2022-12-08T05:38:29.485Z,99760.56
2022-12-08T05:40:56.031Z,99753.56
2022-12-08T05:43:22.564Z,99738.31
2022-12-08T05:45:49.229Z,99755.38
2022-12-08T05:48:16.047Z,99752.66
2022-12-08T05:50:49.567Z,99745.75
2022-12-08T05:53:17.580Z,99727.53
2022-12-08T05:55:44.452Z,99742.91
2022-12-08T05:58:14.136Z,99751.84
2022-12-08T06:00:41.532Z,99736.53
2022-12-08T06:03:08.541Z,99752.81
2022-12-08T06:05:35.903Z,99747.75
2022-12-08T06:08:02.700Z,99732.78
2022-12-08T06:10:29.497Z,99760.16
2022-12-08T06:12:56.059Z,99728.13
2022-12-08T06:15:22.581Z,99758.16
2022-12-08T06:17:49.453Z,99756.22
2022-12-08T06:20:15.972Z,99751.72
2022-12-08T06:22:42.567Z,99757.09
2022-12-08T06:25:10.273Z,99751.03
2022-12-08T06:27:36.974Z,99753.53
2022-12-08T06:30:04.668Z,99741.66
2022-12-08T06:32:31.501Z,99763.34
2022-12-08T06:34:58.102Z,99759.00
2022-12-08T06:37:24.668Z,99765.34
2022-12-08T06:39:51.859Z,99768.13
2022-12-08T06:42:37.318Z,99770.75
2022-12-08T06:45:04.246Z,99770.50
2022-12-08T06:47:30.806Z,99759.13
2022-12-08T06:49:58.438Z,99736.03
2022-12-08T06:52:25.099Z,99751.28
2022-12-08T06:54:51.679Z,99765.19
2022-12-08T06:57:18.669Z,99743.75
2022-12-08T06:59:45.324Z,99757.53
2022-12-08T07:02:11.997Z,99761.00
2022-12-08T07:04:38.540Z,99760.50
2022-12-08T07:07:05.105Z,99752.09
2022-12-08T07:09:31.746Z,99764.38
2022-12-08T07:12:00.664Z,99762.78
2022-12-08T07:14:27.258Z,99756.75
2022-12-08T07:16:53.940Z,99748.94
2022-12-08T07:19:20.649Z,99766.81
2022-12-08T07:21:47.384Z,99763.09
2022-12-08T07:24:13.918Z,99759.63
2022-12-08T07:26:41.195Z,99763.03
2022-12-08T07:29:08.526Z,99761.19
2022-12-08T07:31:35.100Z,99756.63
2022-12-08T07:34:01.790Z,99757.28
2022-12-08T07:36:28.330Z,99726.41
2022-12-08T07:38:54.876Z,99760.00
2022-12-08T07:41:24.283Z,99750.63
2022-12-08T07:43:51.302Z,99756.72
2022-12-08T07:46:21.283Z,99756.63
2022-12-08T07:48:48.235Z,99754.72
2022-12-08T07:51:16.369Z,99762.56
2022-12-08T07:53:51.578Z,99756.72
2022-12-08T07:56:19.951Z,99756.75
2022-12-08T07:58:46.903Z,99753.28
2022-12-08T08:01:45.485Z,99750.59
2022-12-08T08:04:12.455Z,99752.34
2022-12-08T08:06:39.159Z,99751.56
2022-12-08T08:09:05.962Z,99753.66
2022-12-08T08:11:32.553Z,99752.00
2022-12-08T08:13:59.270Z,99746.84
2022-12-08T08:16:25.998Z,99726.28
2022-12-08T08:18:52.726Z,99758.88
2022-12-08T08:24:07.543Z,99759.25
2022-12-08T08:26:34.234Z,99754.91
2022-12-08T08:29:00.804Z,99762.50
2022-12-08T08:31:27.494Z,99756.41
2022-12-08T08:33:54.337Z,99756.25
2022-12-08T08:36:22.139Z,99758.50
2022-12-08T08:38:48.801Z,99761.03
2022-12-08T08:41:15.423Z,99756.66
2022-12-08T08:43:41.989Z,99737.13
2022-12-08T08:46:09.105Z,99762.81
2022-12-08T08:48:36.260Z,99749.41
2022-12-08T08:51:14.002Z,99759.78
2022-12-08T08:53:41.025Z,99763.25
2022-12-08T08:56:12.362Z,99759.81
2022-12-08T08:58:39.030Z,99753.41
2022-12-08T09:01:05.946Z,99758.34
2022-12-08T09:03:32.572Z,99761.56
2022-12-08T09:05:59.400Z,99746.69
2022-12-08T09:08:26.206Z,99756.09
2022-12-08T09:10:52.873Z,99741.91
2022-12-08T09:13:19.499Z,99749.28
2022-12-08T09:15:46.115Z,99749.06
2022-12-08T09:18:12.800Z,99745.50
2022-12-08T09:20:39.537Z,99727.31
2022-12-08T09:23:06.086Z,99745.22
2022-12-08T09:25:32.691Z,99744.25
2022-12-08T09:27:59.224Z,99737.41
2022-12-08T09:30:25.791Z,99753.75
2022-12-08T09:32:52.437Z,99758.09
2022-12-08T09:35:19.024Z,99749.50
2022-12-08T09:37:45.706Z,99722.03
2022-12-08T09:40:18.750Z,99741.63
2022-12-08T09:42:52.088Z,99741.84
2022-12-08T09:45:19.853Z,99722.44
2022-12-08T09:48:16.045Z,99744.88
2022-12-08T09:50:48.436Z,99745.75
2022-12-08T09:53:19.453Z,99737.94
2022-12-08T09:55:50.736Z,99725.19
2022-12-08T09:58:54.759Z,99732.25
2022-12-08T10:01:23.536Z,99725.91
2022-12-08T10:03:50.414Z,99727.69
2022-12-08T10:06:17.006Z,99698.44
2022-12-08T10:08:55.079Z,99711.72
2022-12-08T10:11:29.268Z,99710.53
2022-12-08T10:14:19.169Z,99709.84
2022-12-08T10:16:50.007Z,99717.91
2022-12-08T10:19:25.269Z,99707.16
2022-12-08T10:21:53.679Z,99707.41
2022-12-08T10:24:31.599Z,99681.41
2022-12-08T10:26:58.464Z,99703.66
2022-12-08T10:29:25.023Z,99702.25
2022-12-08T10:31:51.694Z,99693.53
2022-12-08T10:34:23.239Z,99694.22
2022-12-08T10:36:53.042Z,99698.31
2022-12-08T10:39:31.498Z,99693.78
2022-12-08T10:42:08.472Z,99675.00
2022-12-08T10:44:56.230Z,99692.03
2022-12-08T10:47:25.630Z,99689.50
2022-12-08T10:50:20.954Z,99681.78
2022-12-08T10:53:09.480Z,99678.28
2022-12-08T10:55:48.221Z,99666.53
2022-12-08T10:58:26.783Z,99610.09
2022-12-08T11:00:57.729Z,99670.25
2022-12-08T11:03:33.893Z,99666.63
2022-12-08T11:06:08.943Z,99679.56
2022-12-08T11:08:47.075Z,99668.66
2022-12-08T11:11:13.968Z,99666.75
2022-12-08T11:13:42.017Z,99663.97
2022-12-08T11:16:11.666Z,99660.94
2022-12-08T11:18:56.303Z,99638.31
2022-12-08T11:21:34.676Z,99660.28
2022-12-08T11:24:18.675Z,99634.66
2022-12-08T11:27:06.422Z,99658.16
2022-12-08T11:29:35.226Z,99622.69
2022-12-08T11:32:13.493Z,99644.81
2022-12-08T11:34:53.259Z,99647.19
2022-12-08T11:37:34.460Z,99647.19
2022-12-08T11:40:07.098Z,99647.28
2022-12-08T11:42:45.316Z,99650.06
2022-12-08T11:45:20.088Z,99611.25
2022-12-08T11:47:56.119Z,99646.16
2022-12-08T11:50:29.484Z,99632.41
2022-12-08T11:52:58.236Z,99610.38
2022-12-08T11:55:27.343Z,99643.38
2022-12-08T11:57:57.167Z,99626.66
2022-12-08T12:00:23.969Z,99624.56
2022-12-08T12:02:58.928Z,99626.91
2022-12-08T12:06:03.325Z,99624.38
2022-12-08T12:08:39.268Z,99599.91
2022-12-08T12:11:42.013Z,99620.50
2022-12-08T12:14:48.831Z,99618.88
2022-12-08T12:17:36.416Z,99615.44
2022-12-08T12:20:10.058Z,99616.41
2022-12-08T12:22:37.888Z,99616.22
2022-12-08T12:25:05.424Z,99616.31
2022-12-08T12:27:40.300Z,99611.97
2022-12-08T12:30:18.646Z,99615.28
2022-12-08T12:32:49.147Z,99619.56
2022-12-08T12:35:33.205Z,99606.25
2022-12-08T12:38:40.305Z,99572.66
2022-12-08T12:41:08.221Z,99579.94
2022-12-08T12:43:37.163Z,99566.19
2022-12-08T12:46:22.656Z,99597.78
2022-12-08T12:48:50.222Z,99596.72
2022-12-08T12:51:36.103Z,99598.97
2022-12-08T12:54:26.574Z,99601.00
2022-12-08T12:57:16.458Z,99561.72
2022-12-08T12:59:55.653Z,99587.25
2022-12-08T13:02:38.437Z,99553.81
2022-12-08T13:05:26.954Z,99571.38
2022-12-08T13:08:02.123Z,99554.59
2022-12-08T13:10:39.087Z,99578.81
2022-12-08T13:13:12.681Z,99579.38
2022-12-08T13:15:47.161Z,99579.66
2022-12-08T13:18:21.299Z,99578.75
2022-12-08T13:20:52.638Z,99579.84
2022-12-08T13:24:14.223Z,99577.84
2022-12-08T13:26:44.484Z,99574.84
2022-12-08T13:29:22.597Z,99569.97
2022-12-08T13:31:56.302Z,99572.75
2022-12-08T13:34:45.587Z,99565.63
2022-12-08T13:37:12.177Z,99566.22
2022-12-08T13:40:14.265Z,99568.56
2022-12-08T13:43:16.955Z,99573.16
2022-12-08T13:57:32.843Z,99555.56
2022-12-08T14:00:13.796Z,99556.91
2022-12-08T14:02:47.841Z,99555.88
2022-12-08T14:05:19.508Z,99557.75
2022-12-08T14:07:49.980Z,99555.31
2022-12-08T14:10:30.414Z,99560.88
2022-12-08T14:13:11.215Z,99545.88
2022-12-08T14:15:39.002Z,99559.56
2022-12-08T14:18:06.665Z,99561.72
2022-12-08T14:20:51.883Z,99562.84
2022-12-08T14:23:21.605Z,99559.53
2022-12-08T14:25:48.518Z,99570.97
2022-12-08T14:28:15.049Z,99564.97
2022-12-08T14:30:43.093Z,99561.44
2022-12-08T14:33:15.120Z,99572.75
2022-12-08T14:35:41.818Z,99570.47
2022-12-08T14:38:16.804Z,99572.19
2022-12-08T14:40:45.747Z,99560.09
2022-12-08T14:43:14.884Z,99566.19
2022-12-08T14:45:41.562Z,99542.19
2022-12-08T14:48:28.083Z,99558.22
2022-12-08T14:51:11.796Z,99564.38
2022-12-08T14:53:43.275Z,99565.13
2022-12-08T14:56:21.820Z,99569.38
2022-12-08T14:58:51.507Z,99559.97
2022-12-08T15:01:23.569Z,99549.53
2022-12-08T15:03:51.434Z,99569.06
2022-12-08T15:06:21.790Z,99566.97
2022-12-08T15:08:55.380Z,99544.53
2022-12-08T15:11:21.807Z,99569.06
2022-12-08T15:13:50.931Z,99563.91
2022-12-08T15:16:32.056Z,99570.88
2022-12-08T15:19:05.648Z,99571.78
2022-12-08T15:21:38.968Z,99569.38
2022-12-08T15:24:06.025Z,99560.28
2022-12-08T15:26:40.666Z,99577.41
2022-12-08T15:29:28.867Z,99567.28
2022-12-08T15:31:58.290Z,99576.97
2022-12-08T15:34:25.364Z,99562.19
2022-12-08T15:36:54.276Z,99572.44
2022-12-08T15:39:20.739Z,99565.47
2022-12-08T15:41:47.255Z,99559.47
2022-12-08T15:44:14.237Z,99557.31
2022-12-08T15:46:40.799Z,99568.53
2022-12-08T15:49:16.322Z,99571.09
2022-12-08T15:51:42.912Z,99574.50
2022-12-08T15:54:09.482Z,99579.75
2022-12-08T15:56:50.660Z,99561.69
2022-12-08T15:59:25.209Z,99575.06
2022-12-08T16:01:52.703Z,99572.69
2022-12-08T16:05:11.593Z,99576.38
2022-12-08T16:07:37.826Z,99574.88
2022-12-08T16:10:06.270Z,99576.72
2022-12-08T16:15:57.096Z,99572.81
2022-12-08T16:18:29.171Z,99563.50
2022-12-08T16:21:09.742Z,99567.09
2022-12-08T16:23:44.638Z,99563.81
2022-12-08T16:26:35.657Z,99576.09
2022-12-08T16:29:04.802Z,99574.28
2022-12-08T16:31:31.716Z,99570.88
2022-12-08T16:34:00.453Z,99575.28
2022-12-08T16:36:27.045Z,99579.72
2022-12-08T16:38:53.612Z,99573.66
2022-12-08T16:41:38.692Z,99579.81
2022-12-08T16:44:06.625Z,99554.88
2022-12-08T16:46:33.394Z,99573.81
2022-12-08T16:48:59.970Z,99556.41
2022-12-08T16:51:27.522Z,99572.00
2022-12-08T16:53:55.402Z,99569.38
2022-12-08T16:56:28.771Z,99566.75
2022-12-08T16:58:58.709Z,99564.03
2022-12-08T17:01:25.379Z,99553.66
2022-12-08T17:04:22.596Z,99564.09
2022-12-08T17:06:38.530Z,99561.19
2022-12-08T17:09:05.126Z,99565.38
2022-12-08T17:11:36.214Z,99568.00
2022-12-08T17:14:05.815Z,99532.84
2022-12-08T17:16:32.440Z,99549.16
2022-12-08T17:18:59.062Z,99560.50
2022-12-08T17:21:25.702Z,99538.25
2022-12-08T17:23:54.637Z,99558.94
2022-12-08T17:26:21.210Z,99558.22
2022-12-08T17:29:03.003Z,99556.56
2022-12-08T17:31:32.039Z,99562.19
2022-12-08T17:34:01.510Z,99560.63
2022-12-08T17:36:28.422Z,99562.63
2022-12-08T17:38:55.930Z,99545.53
2022-12-08T17:41:22.572Z,99559.34
2022-12-08T17:43:49.083Z,99555.78
2022-12-08T17:46:19.505Z,99553.03
2022-12-08T17:48:46.173Z,99527.06
2022-12-08T17:51:12.980Z,99543.25
2022-12-08T17:53:42.614Z,99544.56
2022-12-08T17:56:18.057Z,99538.34
2022-12-08T17:58:46.628Z,99542.50
2022-12-08T18:01:16.409Z,99547.97
2022-12-08T18:03:43.015Z,99554.19
2022-12-08T18:06:12.360Z,99550.59
2022-12-08T18:08:39.905Z,99538.50
2022-12-08T18:11:14.829Z,99543.31
2022-12-08T18:13:41.455Z,99555.34
2022-12-08T18:16:08.357Z,99529.25
2022-12-08T18:18:34.889Z,99552.72
2022-12-08T18:21:01.444Z,99532.16
2022-12-08T18:23:28.074Z,99550.22
2022-12-08T18:25:54.767Z,99558.81
2022-12-08T18:28:21.321Z,99541.50
2022-12-08T18:30:47.958Z,99544.06
2022-12-08T18:33:14.710Z,99547.50
2022-12-08T18:35:41.263Z,99550.88
2022-12-08T18:38:07.862Z,99533.31
2022-12-08T18:40:34.555Z,99537.44
2022-12-08T18:43:01.127Z,99538.22
2022-12-08T18:45:27.665Z,99518.06
2022-12-08T18:47:54.794Z,99514.00
2022-12-08T18:50:21.356Z,99517.63
2022-12-08T18:52:48.359Z,99543.22
2022-12-08T18:55:15.645Z,99540.31
2022-12-08T18:57:43.284Z,99539.31
2022-12-08T19:00:13.774Z,99527.50
2022-12-08T19:02:41.798Z,99554.97
2022-12-08T19:05:09.857Z,99552.59
2022-12-08T19:07:37.017Z,99539.47
2022-12-08T19:10:05.901Z,99553.44
2022-12-08T19:12:32.793Z,99543.09
2022-12-08T19:14:59.419Z,99545.81
2022-12-08T19:17:26.048Z,99555.25
2022-12-08T19:19:52.749Z,99550.75
2022-12-08T19:22:19.262Z,99555.59
2022-12-08T19:24:46.297Z,99556.25
2022-12-08T19:27:13.130Z,99556.13
2022-12-08T19:29:39.800Z,99557.13
2022-12-08T19:32:06.440Z,99546.94
2022-12-08T19:34:33.005Z,99556.63
2022-12-08T19:36:59.517Z,99564.72
2022-12-08T19:39:44.564Z,99562.53
2022-12-08T19:42:33.058Z,99559.91
2022-12-08T19:45:11.880Z,99565.75
2022-12-08T19:47:39.385Z,99561.16
2022-12-08T19:50:27.221Z,99562.72
2022-12-08T19:52:54.183Z,99556.41
2022-12-08T19:55:20.916Z,99542.59
2022-12-08T19:57:47.663Z,99557.31
2022-12-08T20:00:14.652Z,99549.75
2022-12-08T20:02:41.391Z,99552.75
2022-12-08T20:05:09.468Z,99559.91
2022-12-08T20:07:36.172Z,99548.56
2022-12-08T20:10:09.289Z,99533.84
2022-12-08T20:12:35.968Z,99543.28
2022-12-08T20:15:02.496Z,99534.75
2022-12-08T20:17:29.119Z,99542.50
2022-12-08T20:19:55.720Z,99543.31
2022-12-08T20:22:22.271Z,99539.88
2022-12-08T20:24:57.247Z,99550.84
2022-12-08T20:27:27.447Z,99558.66
2022-12-08T20:29:53.989Z,99543.09
2022-12-08T20:32:20.507Z,99552.44
2022-12-08T20:34:47.041Z,99549.91
2022-12-08T20:37:14.059Z,99544.63
2022-12-08T20:39:40.586Z,99541.78
2022-12-08T20:42:07.137Z,99555.78
2022-12-08T20:44:33.666Z,99520.03
2022-12-08T20:47:00.391Z,99558.13
2022-12-08T20:49:31.289Z,99546.97
2022-12-08T20:52:00.883Z,99549.44
2022-12-08T20:54:28.106Z,99546.72
2022-12-08T20:56:54.741Z,99549.06
2022-12-08T20:59:21.361Z,99525.69
2022-12-08T21:01:48.067Z,99548.44
2022-12-08T21:04:14.868Z,99556.50
2022-12-08T21:06:41.597Z,99526.75
2022-12-08T21:09:08.814Z,99553.34
2022-12-08T21:11:35.907Z,99552.03
2022-12-08T21:14:02.710Z,99552.22
2022-12-08T21:16:29.491Z,99534.41
2022-12-08T21:18:56.542Z,99524.13
2022-12-08T21:21:23.245Z,99550.50
2022-12-08T21:23:49.811Z,99549.69
2022-12-08T21:26:19.590Z,99553.97
2022-12-08T21:28:46.665Z,99559.88
2022-12-08T21:31:18.947Z,99544.94
2022-12-08T21:33:45.884Z,99547.47
2022-12-08T21:36:17.521Z,99561.25
2022-12-08T21:38:45.059Z,99567.38
2022-12-08T21:41:15.528Z,99559.25
2022-12-08T21:43:43.400Z,99559.13
2022-12-08T21:46:17.341Z,99563.50
2022-12-08T21:48:44.368Z,99560.81
2022-12-08T21:51:11.266Z,99553.25
2022-12-08T21:53:37.784Z,99537.91
2022-12-08T21:56:09.141Z,99534.38
2022-12-08T21:58:36.030Z,99555.63
2022-12-08T22:01:10.223Z,99553.88
2022-12-08T22:03:39.344Z,99547.16
2022-12-08T22:06:08.191Z,99551.56
2022-12-08T22:08:35.307Z,99551.47
2022-12-08T22:11:02.122Z,99555.09
2022-12-08T22:13:29.013Z,99563.94
2022-12-08T22:16:00.623Z,99566.88
2022-12-08T22:18:27.584Z,99567.09
2022-12-08T22:20:54.284Z,99571.56
2022-12-08T22:23:21.712Z,99564.75
2022-12-08T22:25:58.387Z,99560.63
2022-12-08T22:28:26.449Z,99557.25
2022-12-08T22:30:53.475Z,99554.66
2022-12-08T22:33:20.646Z,99527.09
2022-12-08T22:36:08.205Z,99553.28
2022-12-08T22:38:37.352Z,99554.97
2022-12-08T22:41:05.626Z,99559.50
2022-12-08T22:43:33.190Z,99556.75
2022-12-08T22:46:00.006Z,99519.53
2022-12-08T22:48:26.778Z,99520.97
2022-12-08T22:51:01.556Z,99548.25
2022-12-08T22:53:28.232Z,99542.00
2022-12-08T22:55:55.166Z,99541.91
2022-12-08T22:58:21.835Z,99528.00
2022-12-08T23:00:48.395Z,99534.06
2022-12-08T23:03:15.075Z,99536.44
2022-12-08T23:05:42.474Z,99532.94
2022-12-08T23:08:15.267Z,99534.78
2022-12-08T23:10:43.202Z,99536.41
2022-12-08T23:13:10.140Z,99531.31
2022-12-08T23:15:38.377Z,99544.34
2022-12-08T23:18:05.758Z,99517.22
2022-12-08T23:20:32.607Z,99534.38
2022-12-08T23:22:59.298Z,99539.06
2022-12-08T23:25:26.007Z,99539.25
2022-12-08T23:27:52.933Z,99516.63
2022-12-08T23:30:19.545Z,99530.59
2022-12-08T23:32:46.276Z,99534.09
2022-12-08T23:35:12.909Z,99534.22
2022-12-08T23:37:39.696Z,99501.88
2022-12-08T23:40:07.671Z,99531.88
2022-12-08T23:42:34.685Z,99534.63
2022-12-08T23:45:01.537Z,99525.97
2022-12-08T23:47:28.446Z,99534.50
2022-12-08T23:49:55.358Z,99531.16
2022-12-08T23:52:22.168Z,99515.69
2022-12-08T23:54:52.000Z,99524.47
2022-12-08T23:57:18.685Z,99523.59
2022-12-08T23:59:45.440Z,99480.66
